<?xml version="1.0" encoding="UTF-8" standalone="no" ?>
<gpx xmlns="http://www.topografix.com/GPX/1/1" xmlns:xsi="http://www.w3.org/2001/XMLSchema-instance" xsi:schemaLocation="http://www.topografix.com/GPX/1/1 http://www.topografix.com/GPX/1/1/gpx.xsd" version="1.1" creator="VisuGPX - https://www.visugpx.com">
  <metadata>
    <name>Running Nature et plaisir à La Bollène Vésubie</name>
    <desc><![CDATA[Le Bonheur de parcourir les single track autour du village avec une bande d\'amis et leurs enfants.]]></desc>
  </metadata>
  <trk>
    <name><![CDATA[Running Nature La Bollène]]></name>
    <desc><![CDATA[Sortie plaisir avec les amis du village, test de nouvelles chaussures, sur les sentiers à différentes allures + étirements légers.]]></desc>
    <trkseg>
      <trkpt lat="43.99095" lon="7.33207">
        <ele>693.79998779297</ele>
        <time>2014-09-13T15:34:42.000Z</time>
      </trkpt>
      <trkpt lat="43.99109" lon="7.33222">
        <ele>695.20001220703</ele>
        <time>2014-09-13T15:34:54.000Z</time>
      </trkpt>
      <trkpt lat="43.99114" lon="7.33228">
        <ele>695</ele>
        <time>2014-09-13T15:34:57.000Z</time>
      </trkpt>
      <trkpt lat="43.99124" lon="7.3325">
        <ele>696.40002441406</ele>
        <time>2014-09-13T15:35:06.000Z</time>
      </trkpt>
      <trkpt lat="43.99131" lon="7.33276">
        <ele>700.79998779297</ele>
        <time>2014-09-13T15:35:16.000Z</time>
      </trkpt>
      <trkpt lat="43.99141" lon="7.33298">
        <ele>702.59997558594</ele>
        <time>2014-09-13T15:35:26.000Z</time>
      </trkpt>
      <trkpt lat="43.99151" lon="7.33319">
        <ele>704.20001220703</ele>
        <time>2014-09-13T15:35:38.000Z</time>
      </trkpt>
      <trkpt lat="43.99154" lon="7.33328">
        <ele>705.20001220703</ele>
        <time>2014-09-13T15:35:44.000Z</time>
      </trkpt>
      <trkpt lat="43.9916" lon="7.33341">
        <ele>708.40002441406</ele>
        <time>2014-09-13T15:35:49.000Z</time>
      </trkpt>
      <trkpt lat="43.99168" lon="7.33363">
        <ele>714.79998779297</ele>
        <time>2014-09-13T15:35:58.000Z</time>
      </trkpt>
      <trkpt lat="43.99172" lon="7.33376">
        <ele>719</ele>
        <time>2014-09-13T15:36:03.000Z</time>
      </trkpt>
      <trkpt lat="43.99187" lon="7.3339">
        <ele>721</ele>
        <time>2014-09-13T15:36:14.000Z</time>
      </trkpt>
      <trkpt lat="43.99187" lon="7.33392">
        <ele>721.79998779297</ele>
        <time>2014-09-13T15:36:15.000Z</time>
      </trkpt>
      <trkpt lat="43.99174" lon="7.33392">
        <ele>724.20001220703</ele>
        <time>2014-09-13T15:36:23.000Z</time>
      </trkpt>
      <trkpt lat="43.99168" lon="7.33392">
        <ele>725</ele>
        <time>2014-09-13T15:36:27.000Z</time>
      </trkpt>
      <trkpt lat="43.99169" lon="7.33402">
        <ele>726.59997558594</ele>
        <time>2014-09-13T15:36:33.000Z</time>
      </trkpt>
      <trkpt lat="43.99171" lon="7.33404">
        <ele>727</ele>
        <time>2014-09-13T15:36:36.000Z</time>
      </trkpt>
      <trkpt lat="43.99188" lon="7.33414">
        <ele>729</ele>
        <time>2014-09-13T15:36:53.000Z</time>
      </trkpt>
      <trkpt lat="43.992" lon="7.33419">
        <ele>728.20001220703</ele>
        <time>2014-09-13T15:37:00.000Z</time>
      </trkpt>
      <trkpt lat="43.99217" lon="7.33427">
        <ele>726.20001220703</ele>
        <time>2014-09-13T15:37:10.000Z</time>
      </trkpt>
      <trkpt lat="43.99236" lon="7.33434">
        <ele>724</ele>
        <time>2014-09-13T15:37:21.000Z</time>
      </trkpt>
      <trkpt lat="43.99249" lon="7.3345">
        <ele>724.79998779297</ele>
        <time>2014-09-13T15:37:31.000Z</time>
      </trkpt>
      <trkpt lat="43.99256" lon="7.33459">
        <ele>725.59997558594</ele>
        <time>2014-09-13T15:37:39.000Z</time>
      </trkpt>
      <trkpt lat="43.99259" lon="7.33477">
        <ele>729.59997558594</ele>
        <time>2014-09-13T15:37:51.000Z</time>
      </trkpt>
      <trkpt lat="43.99266" lon="7.33503">
        <ele>734.79998779297</ele>
        <time>2014-09-13T15:38:02.000Z</time>
      </trkpt>
      <trkpt lat="43.99272" lon="7.33528">
        <ele>737.40002441406</ele>
        <time>2014-09-13T15:38:11.000Z</time>
      </trkpt>
      <trkpt lat="43.99279" lon="7.33551">
        <ele>738.79998779297</ele>
        <time>2014-09-13T15:38:20.000Z</time>
      </trkpt>
      <trkpt lat="43.99284" lon="7.33577">
        <ele>741</ele>
        <time>2014-09-13T15:38:29.000Z</time>
      </trkpt>
      <trkpt lat="43.9929" lon="7.33601">
        <ele>742.40002441406</ele>
        <time>2014-09-13T15:38:39.000Z</time>
      </trkpt>
      <trkpt lat="43.99297" lon="7.33626">
        <ele>743.20001220703</ele>
        <time>2014-09-13T15:38:51.000Z</time>
      </trkpt>
      <trkpt lat="43.99303" lon="7.33648">
        <ele>744.40002441406</ele>
        <time>2014-09-13T15:39:04.000Z</time>
      </trkpt>
      <trkpt lat="43.9931" lon="7.33672">
        <ele>745.59997558594</ele>
        <time>2014-09-13T15:39:21.000Z</time>
      </trkpt>
      <trkpt lat="43.99317" lon="7.33695">
        <ele>748.40002441406</ele>
        <time>2014-09-13T15:39:32.000Z</time>
      </trkpt>
      <trkpt lat="43.99327" lon="7.33716">
        <ele>749.20001220703</ele>
        <time>2014-09-13T15:39:41.000Z</time>
      </trkpt>
      <trkpt lat="43.99338" lon="7.33736">
        <ele>749.40002441406</ele>
        <time>2014-09-13T15:39:50.000Z</time>
      </trkpt>
      <trkpt lat="43.99351" lon="7.33758">
        <ele>748.20001220703</ele>
        <time>2014-09-13T15:40:00.000Z</time>
      </trkpt>
      <trkpt lat="43.9936" lon="7.33782">
        <ele>748.20001220703</ele>
        <time>2014-09-13T15:40:10.000Z</time>
      </trkpt>
      <trkpt lat="43.9936" lon="7.33785">
        <ele>748.40002441406</ele>
        <time>2014-09-13T15:40:11.000Z</time>
      </trkpt>
      <trkpt lat="43.99362" lon="7.33809">
        <ele>751.40002441406</ele>
        <time>2014-09-13T15:40:20.000Z</time>
      </trkpt>
      <trkpt lat="43.99365" lon="7.33835">
        <ele>753.59997558594</ele>
        <time>2014-09-13T15:40:30.000Z</time>
      </trkpt>
      <trkpt lat="43.99363" lon="7.33861">
        <ele>755.59997558594</ele>
        <time>2014-09-13T15:40:39.000Z</time>
      </trkpt>
      <trkpt lat="43.9936" lon="7.33886">
        <ele>758</ele>
        <time>2014-09-13T15:40:47.000Z</time>
      </trkpt>
      <trkpt lat="43.99358" lon="7.33911">
        <ele>759.79998779297</ele>
        <time>2014-09-13T15:40:55.000Z</time>
      </trkpt>
      <trkpt lat="43.9936" lon="7.33938">
        <ele>761.20001220703</ele>
        <time>2014-09-13T15:41:04.000Z</time>
      </trkpt>
      <trkpt lat="43.99362" lon="7.33964">
        <ele>763.20001220703</ele>
        <time>2014-09-13T15:41:13.000Z</time>
      </trkpt>
      <trkpt lat="43.99365" lon="7.33989">
        <ele>764</ele>
        <time>2014-09-13T15:41:22.000Z</time>
      </trkpt>
      <trkpt lat="43.99371" lon="7.34014">
        <ele>763.79998779297</ele>
        <time>2014-09-13T15:41:30.000Z</time>
      </trkpt>
      <trkpt lat="43.99374" lon="7.3404">
        <ele>765</ele>
        <time>2014-09-13T15:41:39.000Z</time>
      </trkpt>
      <trkpt lat="43.99377" lon="7.34067">
        <ele>766.40002441406</ele>
        <time>2014-09-13T15:41:49.000Z</time>
      </trkpt>
      <trkpt lat="43.99377" lon="7.34094">
        <ele>773</ele>
        <time>2014-09-13T15:41:58.000Z</time>
      </trkpt>
      <trkpt lat="43.99372" lon="7.34119">
        <ele>779.40002441406</ele>
        <time>2014-09-13T15:42:08.000Z</time>
      </trkpt>
      <trkpt lat="43.99371" lon="7.34119">
        <ele>779.59997558594</ele>
        <time>2014-09-13T15:42:09.000Z</time>
      </trkpt>
      <trkpt lat="43.99372" lon="7.34125">
        <ele>780.20001220703</ele>
        <time>2014-09-13T15:44:11.000Z</time>
      </trkpt>
      <trkpt lat="43.99372" lon="7.34152">
        <ele>784</ele>
        <time>2014-09-13T15:44:21.000Z</time>
      </trkpt>
      <trkpt lat="43.99372" lon="7.34176">
        <ele>791.79998779297</ele>
        <time>2014-09-13T15:44:33.000Z</time>
      </trkpt>
      <trkpt lat="43.99373" lon="7.34177">
        <ele>792</ele>
        <time>2014-09-13T15:44:34.000Z</time>
      </trkpt>
      <trkpt lat="43.99382" lon="7.34176">
        <ele>788</ele>
        <time>2014-09-13T15:44:39.000Z</time>
      </trkpt>
      <trkpt lat="43.994" lon="7.34179">
        <ele>782.40002441406</ele>
        <time>2014-09-13T15:44:48.000Z</time>
      </trkpt>
      <trkpt lat="43.99417" lon="7.34186">
        <ele>779.40002441406</ele>
        <time>2014-09-13T15:44:57.000Z</time>
      </trkpt>
      <trkpt lat="43.99435" lon="7.34196">
        <ele>777.40002441406</ele>
        <time>2014-09-13T15:45:06.000Z</time>
      </trkpt>
      <trkpt lat="43.99453" lon="7.34207">
        <ele>779</ele>
        <time>2014-09-13T15:45:15.000Z</time>
      </trkpt>
      <trkpt lat="43.99471" lon="7.34215">
        <ele>781</ele>
        <time>2014-09-13T15:45:25.000Z</time>
      </trkpt>
      <trkpt lat="43.99488" lon="7.34224">
        <ele>783</ele>
        <time>2014-09-13T15:45:35.000Z</time>
      </trkpt>
      <trkpt lat="43.99506" lon="7.34235">
        <ele>786.20001220703</ele>
        <time>2014-09-13T15:45:43.000Z</time>
      </trkpt>
      <trkpt lat="43.9952" lon="7.3425">
        <ele>791.79998779297</ele>
        <time>2014-09-13T15:45:51.000Z</time>
      </trkpt>
      <trkpt lat="43.99521" lon="7.34252">
        <ele>792.79998779297</ele>
        <time>2014-09-13T15:45:52.000Z</time>
      </trkpt>
      <trkpt lat="43.99522" lon="7.34258">
        <ele>795.20001220703</ele>
        <time>2014-09-13T15:45:56.000Z</time>
      </trkpt>
      <trkpt lat="43.99523" lon="7.34258">
        <ele>795.20001220703</ele>
        <time>2014-09-13T15:46:26.000Z</time>
      </trkpt>
      <trkpt lat="43.99514" lon="7.34258">
        <ele>796</ele>
        <time>2014-09-13T15:46:35.000Z</time>
      </trkpt>
      <trkpt lat="43.99512" lon="7.34258">
        <ele>796.59997558594</ele>
        <time>2014-09-13T15:46:38.000Z</time>
      </trkpt>
      <trkpt lat="43.99511" lon="7.34257">
        <ele>796.40002441406</ele>
        <time>2014-09-13T15:46:40.000Z</time>
      </trkpt>
      <trkpt lat="43.99508" lon="7.34257">
        <ele>796.79998779297</ele>
        <time>2014-09-13T15:46:45.000Z</time>
      </trkpt>
      <trkpt lat="43.99506" lon="7.34255">
        <ele>796.20001220703</ele>
        <time>2014-09-13T15:46:47.000Z</time>
      </trkpt>
      <trkpt lat="43.99501" lon="7.34251">
        <ele>794.79998779297</ele>
        <time>2014-09-13T15:46:51.000Z</time>
      </trkpt>
      <trkpt lat="43.99483" lon="7.34244">
        <ele>793.79998779297</ele>
        <time>2014-09-13T15:47:06.000Z</time>
      </trkpt>
      <trkpt lat="43.99477" lon="7.34241">
        <ele>793</ele>
        <time>2014-09-13T15:47:10.000Z</time>
      </trkpt>
      <trkpt lat="43.9946" lon="7.34237">
        <ele>793.40002441406</ele>
        <time>2014-09-13T15:47:20.000Z</time>
      </trkpt>
      <trkpt lat="43.99441" lon="7.34235">
        <ele>795</ele>
        <time>2014-09-13T15:47:32.000Z</time>
      </trkpt>
      <trkpt lat="43.99436" lon="7.34234">
        <ele>796.40002441406</ele>
        <time>2014-09-13T15:47:35.000Z</time>
      </trkpt>
      <trkpt lat="43.99415" lon="7.34227">
        <ele>798.79998779297</ele>
        <time>2014-09-13T15:47:45.000Z</time>
      </trkpt>
      <trkpt lat="43.99398" lon="7.34222">
        <ele>798.59997558594</ele>
        <time>2014-09-13T15:47:53.000Z</time>
      </trkpt>
      <trkpt lat="43.99396" lon="7.34223">
        <ele>798.79998779297</ele>
        <time>2014-09-13T15:47:54.000Z</time>
      </trkpt>
      <trkpt lat="43.99379" lon="7.34227">
        <ele>800.20001220703</ele>
        <time>2014-09-13T15:48:02.000Z</time>
      </trkpt>
      <trkpt lat="43.99372" lon="7.3423">
        <ele>800.79998779297</ele>
        <time>2014-09-13T15:48:05.000Z</time>
      </trkpt>
      <trkpt lat="43.99354" lon="7.34228">
        <ele>803.79998779297</ele>
        <time>2014-09-13T15:48:13.000Z</time>
      </trkpt>
      <trkpt lat="43.99346" lon="7.34223">
        <ele>808.59997558594</ele>
        <time>2014-09-13T15:48:19.000Z</time>
      </trkpt>
      <trkpt lat="43.99348" lon="7.34226">
        <ele>807.40002441406</ele>
        <time>2014-09-13T15:48:56.000Z</time>
      </trkpt>
      <trkpt lat="43.9935" lon="7.34228">
        <ele>806.59997558594</ele>
        <time>2014-09-13T15:49:10.000Z</time>
      </trkpt>
      <trkpt lat="43.9934" lon="7.34217">
        <ele>812.20001220703</ele>
        <time>2014-09-13T15:49:20.000Z</time>
      </trkpt>
      <trkpt lat="43.99333" lon="7.34194">
        <ele>813</ele>
        <time>2014-09-13T15:49:31.000Z</time>
      </trkpt>
      <trkpt lat="43.99332" lon="7.34189">
        <ele>813</ele>
        <time>2014-09-13T15:49:33.000Z</time>
      </trkpt>
      <trkpt lat="43.9933" lon="7.34162">
        <ele>810.20001220703</ele>
        <time>2014-09-13T15:49:44.000Z</time>
      </trkpt>
      <trkpt lat="43.99324" lon="7.34137">
        <ele>810</ele>
        <time>2014-09-13T15:49:55.000Z</time>
      </trkpt>
      <trkpt lat="43.99321" lon="7.34151">
        <ele>814.79998779297</ele>
        <time>2014-09-13T15:50:18.000Z</time>
      </trkpt>
      <trkpt lat="43.99322" lon="7.34176">
        <ele>818.20001220703</ele>
        <time>2014-09-13T15:50:38.000Z</time>
      </trkpt>
      <trkpt lat="43.99316" lon="7.342">
        <ele>826.20001220703</ele>
        <time>2014-09-13T15:50:49.000Z</time>
      </trkpt>
      <trkpt lat="43.9931" lon="7.34225">
        <ele>832.20001220703</ele>
        <time>2014-09-13T15:50:59.000Z</time>
      </trkpt>
      <trkpt lat="43.99309" lon="7.34231">
        <ele>833.59997558594</ele>
        <time>2014-09-13T15:51:02.000Z</time>
      </trkpt>
      <trkpt lat="43.99309" lon="7.34241">
        <ele>834.79998779297</ele>
        <time>2014-09-13T15:51:08.000Z</time>
      </trkpt>
      <trkpt lat="43.99308" lon="7.34244">
        <ele>835.40002441406</ele>
        <time>2014-09-13T15:51:09.000Z</time>
      </trkpt>
      <trkpt lat="43.99303" lon="7.34227">
        <ele>837.20001220703</ele>
        <time>2014-09-13T15:51:26.000Z</time>
      </trkpt>
      <trkpt lat="43.99303" lon="7.34202">
        <ele>834.79998779297</ele>
        <time>2014-09-13T15:51:38.000Z</time>
      </trkpt>
      <trkpt lat="43.99301" lon="7.34198">
        <ele>835.79998779297</ele>
        <time>2014-09-13T15:51:40.000Z</time>
      </trkpt>
      <trkpt lat="43.99296" lon="7.34213">
        <ele>840</ele>
        <time>2014-09-13T15:52:26.000Z</time>
      </trkpt>
      <trkpt lat="43.99293" lon="7.34238">
        <ele>845</ele>
        <time>2014-09-13T15:52:39.000Z</time>
      </trkpt>
      <trkpt lat="43.99293" lon="7.34263">
        <ele>853.59997558594</ele>
        <time>2014-09-13T15:52:54.000Z</time>
      </trkpt>
      <trkpt lat="43.99293" lon="7.34267">
        <ele>855.20001220703</ele>
        <time>2014-09-13T15:53:00.000Z</time>
      </trkpt>
      <trkpt lat="43.99293" lon="7.34267">
        <ele>855.20001220703</ele>
        <time>2014-09-13T15:53:05.000Z</time>
      </trkpt>
      <trkpt lat="43.99287" lon="7.34253">
        <ele>852.40002441406</ele>
        <time>2014-09-13T15:53:15.000Z</time>
      </trkpt>
      <trkpt lat="43.99284" lon="7.34243">
        <ele>850.79998779297</ele>
        <time>2014-09-13T15:53:25.000Z</time>
      </trkpt>
      <trkpt lat="43.99283" lon="7.3424">
        <ele>851</ele>
        <time>2014-09-13T15:53:27.000Z</time>
      </trkpt>
      <trkpt lat="43.99281" lon="7.34225">
        <ele>850.79998779297</ele>
        <time>2014-09-13T15:53:35.000Z</time>
      </trkpt>
      <trkpt lat="43.99281" lon="7.34223">
        <ele>850.59997558594</ele>
        <time>2014-09-13T15:53:45.000Z</time>
      </trkpt>
      <trkpt lat="43.99274" lon="7.34246">
        <ele>857.40002441406</ele>
        <time>2014-09-13T15:54:13.000Z</time>
      </trkpt>
      <trkpt lat="43.99274" lon="7.34273">
        <ele>861.40002441406</ele>
        <time>2014-09-13T15:54:27.000Z</time>
      </trkpt>
      <trkpt lat="43.9927" lon="7.34263">
        <ele>862.79998779297</ele>
        <time>2014-09-13T15:54:49.000Z</time>
      </trkpt>
      <trkpt lat="43.99265" lon="7.34238">
        <ele>862.59997558594</ele>
        <time>2014-09-13T15:55:08.000Z</time>
      </trkpt>
      <trkpt lat="43.99255" lon="7.34217">
        <ele>867.20001220703</ele>
        <time>2014-09-13T15:55:28.000Z</time>
      </trkpt>
      <trkpt lat="43.99244" lon="7.34198">
        <ele>873</ele>
        <time>2014-09-13T15:55:52.000Z</time>
      </trkpt>
      <trkpt lat="43.99234" lon="7.34176">
        <ele>878</ele>
        <time>2014-09-13T15:56:08.000Z</time>
      </trkpt>
      <trkpt lat="43.99225" lon="7.34151">
        <ele>880.79998779297</ele>
        <time>2014-09-13T15:56:23.000Z</time>
      </trkpt>
      <trkpt lat="43.99221" lon="7.34126">
        <ele>880.40002441406</ele>
        <time>2014-09-13T15:56:44.000Z</time>
      </trkpt>
      <trkpt lat="43.99216" lon="7.34101">
        <ele>880.59997558594</ele>
        <time>2014-09-13T15:57:09.000Z</time>
      </trkpt>
      <trkpt lat="43.99219" lon="7.34092">
        <ele>877.59997558594</ele>
        <time>2014-09-13T15:57:14.000Z</time>
      </trkpt>
      <trkpt lat="43.99217" lon="7.34083">
        <ele>877.40002441406</ele>
        <time>2014-09-13T15:57:20.000Z</time>
      </trkpt>
      <trkpt lat="43.99211" lon="7.34059">
        <ele>879.79998779297</ele>
        <time>2014-09-13T15:57:36.000Z</time>
      </trkpt>
      <trkpt lat="43.99208" lon="7.34034">
        <ele>881.79998779297</ele>
        <time>2014-09-13T15:57:49.000Z</time>
      </trkpt>
      <trkpt lat="43.99204" lon="7.3402">
        <ele>884.20001220703</ele>
        <time>2014-09-13T15:57:58.000Z</time>
      </trkpt>
      <trkpt lat="43.99198" lon="7.34035">
        <ele>889</ele>
        <time>2014-09-13T15:58:29.000Z</time>
      </trkpt>
      <trkpt lat="43.99191" lon="7.34059">
        <ele>894.59997558594</ele>
        <time>2014-09-13T15:58:49.000Z</time>
      </trkpt>
      <trkpt lat="43.99192" lon="7.34085">
        <ele>895.20001220703</ele>
        <time>2014-09-13T15:59:03.000Z</time>
      </trkpt>
      <trkpt lat="43.9919" lon="7.34109">
        <ele>900</ele>
        <time>2014-09-13T15:59:18.000Z</time>
      </trkpt>
      <trkpt lat="43.99184" lon="7.34134">
        <ele>907.20001220703</ele>
        <time>2014-09-13T15:59:33.000Z</time>
      </trkpt>
      <trkpt lat="43.99176" lon="7.34132">
        <ele>912.59997558594</ele>
        <time>2014-09-13T16:00:04.000Z</time>
      </trkpt>
      <trkpt lat="43.99175" lon="7.34108">
        <ele>910.40002441406</ele>
        <time>2014-09-13T16:00:37.000Z</time>
      </trkpt>
      <trkpt lat="43.99176" lon="7.34082">
        <ele>906.40002441406</ele>
        <time>2014-09-13T16:00:53.000Z</time>
      </trkpt>
      <trkpt lat="43.9917" lon="7.34057">
        <ele>906.20001220703</ele>
        <time>2014-09-13T16:01:04.000Z</time>
      </trkpt>
      <trkpt lat="43.9917" lon="7.34031">
        <ele>905.40002441406</ele>
        <time>2014-09-13T16:01:33.000Z</time>
      </trkpt>
      <trkpt lat="43.99163" lon="7.34008">
        <ele>908</ele>
        <time>2014-09-13T16:01:53.000Z</time>
      </trkpt>
      <trkpt lat="43.99149" lon="7.33989">
        <ele>912.40002441406</ele>
        <time>2014-09-13T16:02:03.000Z</time>
      </trkpt>
      <trkpt lat="43.99132" lon="7.33975">
        <ele>916.59997558594</ele>
        <time>2014-09-13T16:02:17.000Z</time>
      </trkpt>
      <trkpt lat="43.99115" lon="7.33966">
        <ele>922.79998779297</ele>
        <time>2014-09-13T16:02:37.000Z</time>
      </trkpt>
      <trkpt lat="43.99097" lon="7.3396">
        <ele>926.40002441406</ele>
        <time>2014-09-13T16:02:55.000Z</time>
      </trkpt>
      <trkpt lat="43.99095" lon="7.3396">
        <ele>926.59997558594</ele>
        <time>2014-09-13T16:02:57.000Z</time>
      </trkpt>
      <trkpt lat="43.99092" lon="7.33963">
        <ele>928.40002441406</ele>
        <time>2014-09-13T16:03:10.000Z</time>
      </trkpt>
      <trkpt lat="43.99089" lon="7.33965">
        <ele>929.59997558594</ele>
        <time>2014-09-13T16:03:16.000Z</time>
      </trkpt>
      <trkpt lat="43.9909" lon="7.33966">
        <ele>929.79998779297</ele>
        <time>2014-09-13T16:03:21.000Z</time>
      </trkpt>
      <trkpt lat="43.99089" lon="7.33959">
        <ele>927.20001220703</ele>
        <time>2014-09-13T16:03:28.000Z</time>
      </trkpt>
      <trkpt lat="43.99087" lon="7.33954">
        <ele>925.79998779297</ele>
        <time>2014-09-13T16:03:56.000Z</time>
      </trkpt>
      <trkpt lat="43.99089" lon="7.33951">
        <ele>924.59997558594</ele>
        <time>2014-09-13T16:04:04.000Z</time>
      </trkpt>
      <trkpt lat="43.99087" lon="7.33946">
        <ele>923.20001220703</ele>
        <time>2014-09-13T16:04:09.000Z</time>
      </trkpt>
      <trkpt lat="43.99083" lon="7.33938">
        <ele>920.79998779297</ele>
        <time>2014-09-13T16:04:50.000Z</time>
      </trkpt>
      <trkpt lat="43.99086" lon="7.33941">
        <ele>921.40002441406</ele>
        <time>2014-09-13T16:04:57.000Z</time>
      </trkpt>
      <trkpt lat="43.99091" lon="7.33943">
        <ele>921.20001220703</ele>
        <time>2014-09-13T16:05:33.000Z</time>
      </trkpt>
      <trkpt lat="43.9909" lon="7.33943">
        <ele>921.40002441406</ele>
        <time>2014-09-13T16:05:37.000Z</time>
      </trkpt>
      <trkpt lat="43.99085" lon="7.33944">
        <ele>922.59997558594</ele>
        <time>2014-09-13T16:06:50.000Z</time>
      </trkpt>
      <trkpt lat="43.99087" lon="7.33946">
        <ele>923</ele>
        <time>2014-09-13T16:07:00.000Z</time>
      </trkpt>
      <trkpt lat="43.99086" lon="7.33947">
        <ele>923.40002441406</ele>
        <time>2014-09-13T16:07:04.000Z</time>
      </trkpt>
      <trkpt lat="43.99085" lon="7.33955">
        <ele>926.59997558594</ele>
        <time>2014-09-13T16:08:06.000Z</time>
      </trkpt>
      <trkpt lat="43.99084" lon="7.33951">
        <ele>925.59997558594</ele>
        <time>2014-09-13T16:08:12.000Z</time>
      </trkpt>
      <trkpt lat="43.99083" lon="7.33949">
        <ele>924.79998779297</ele>
        <time>2014-09-13T16:08:20.000Z</time>
      </trkpt>
      <trkpt lat="43.99081" lon="7.33947">
        <ele>924.40002441406</ele>
        <time>2014-09-13T16:08:22.000Z</time>
      </trkpt>
      <trkpt lat="43.9908" lon="7.33951">
        <ele>926.20001220703</ele>
        <time>2014-09-13T16:09:04.000Z</time>
      </trkpt>
      <trkpt lat="43.99078" lon="7.33948">
        <ele>925.59997558594</ele>
        <time>2014-09-13T16:09:10.000Z</time>
      </trkpt>
      <trkpt lat="43.99059" lon="7.33943">
        <ele>927.40002441406</ele>
        <time>2014-09-13T16:09:30.000Z</time>
      </trkpt>
      <trkpt lat="43.99041" lon="7.33937">
        <ele>929</ele>
        <time>2014-09-13T16:09:39.000Z</time>
      </trkpt>
      <trkpt lat="43.99022" lon="7.33929">
        <ele>930</ele>
        <time>2014-09-13T16:09:47.000Z</time>
      </trkpt>
      <trkpt lat="43.99007" lon="7.33914">
        <ele>927.20001220703</ele>
        <time>2014-09-13T16:09:52.000Z</time>
      </trkpt>
      <trkpt lat="43.98991" lon="7.33898">
        <ele>923.40002441406</ele>
        <time>2014-09-13T16:09:57.000Z</time>
      </trkpt>
      <trkpt lat="43.98975" lon="7.33878">
        <ele>918.40002441406</ele>
        <time>2014-09-13T16:10:03.000Z</time>
      </trkpt>
      <trkpt lat="43.98959" lon="7.33859">
        <ele>912.79998779297</ele>
        <time>2014-09-13T16:10:08.000Z</time>
      </trkpt>
      <trkpt lat="43.98943" lon="7.33842">
        <ele>909</ele>
        <time>2014-09-13T16:10:13.000Z</time>
      </trkpt>
      <trkpt lat="43.98926" lon="7.33829">
        <ele>905.79998779297</ele>
        <time>2014-09-13T16:10:18.000Z</time>
      </trkpt>
      <trkpt lat="43.98908" lon="7.33819">
        <ele>904</ele>
        <time>2014-09-13T16:10:23.000Z</time>
      </trkpt>
      <trkpt lat="43.98888" lon="7.33808">
        <ele>902.40002441406</ele>
        <time>2014-09-13T16:10:29.000Z</time>
      </trkpt>
      <trkpt lat="43.98885" lon="7.33809">
        <ele>903.20001220703</ele>
        <time>2014-09-13T16:10:30.000Z</time>
      </trkpt>
      <trkpt lat="43.98868" lon="7.338">
        <ele>902</ele>
        <time>2014-09-13T16:10:35.000Z</time>
      </trkpt>
      <trkpt lat="43.98851" lon="7.33789">
        <ele>900.40002441406</ele>
        <time>2014-09-13T16:10:41.000Z</time>
      </trkpt>
      <trkpt lat="43.98836" lon="7.33776">
        <ele>899.20001220703</ele>
        <time>2014-09-13T16:10:45.000Z</time>
      </trkpt>
      <trkpt lat="43.98819" lon="7.33759">
        <ele>896.79998779297</ele>
        <time>2014-09-13T16:10:50.000Z</time>
      </trkpt>
      <trkpt lat="43.98805" lon="7.33741">
        <ele>892.79998779297</ele>
        <time>2014-09-13T16:10:54.000Z</time>
      </trkpt>
      <trkpt lat="43.98789" lon="7.33724">
        <ele>889.59997558594</ele>
        <time>2014-09-13T16:11:00.000Z</time>
      </trkpt>
      <trkpt lat="43.98783" lon="7.33712">
        <ele>886.40002441406</ele>
        <time>2014-09-13T16:11:05.000Z</time>
      </trkpt>
      <trkpt lat="43.98787" lon="7.33713">
        <ele>885.40002441406</ele>
        <time>2014-09-13T16:14:19.000Z</time>
      </trkpt>
      <trkpt lat="43.98795" lon="7.33717">
        <ele>885.20001220703</ele>
        <time>2014-09-13T16:15:34.000Z</time>
      </trkpt>
      <trkpt lat="43.98811" lon="7.3373">
        <ele>885.59997558594</ele>
        <time>2014-09-13T16:15:41.000Z</time>
      </trkpt>
      <trkpt lat="43.98831" lon="7.33739">
        <ele>883.40002441406</ele>
        <time>2014-09-13T16:15:48.000Z</time>
      </trkpt>
      <trkpt lat="43.98851" lon="7.33749">
        <ele>882.20001220703</ele>
        <time>2014-09-13T16:15:54.000Z</time>
      </trkpt>
      <trkpt lat="43.9887" lon="7.33749">
        <ele>877</ele>
        <time>2014-09-13T16:16:00.000Z</time>
      </trkpt>
      <trkpt lat="43.98876" lon="7.3375">
        <ele>876.20001220703</ele>
        <time>2014-09-13T16:16:03.000Z</time>
      </trkpt>
      <trkpt lat="43.98859" lon="7.33739">
        <ele>875</ele>
        <time>2014-09-13T16:16:09.000Z</time>
      </trkpt>
      <trkpt lat="43.98841" lon="7.33726">
        <ele>874.59997558594</ele>
        <time>2014-09-13T16:16:14.000Z</time>
      </trkpt>
      <trkpt lat="43.98826" lon="7.3371">
        <ele>872</ele>
        <time>2014-09-13T16:16:19.000Z</time>
      </trkpt>
      <trkpt lat="43.98817" lon="7.33699">
        <ele>869.79998779297</ele>
        <time>2014-09-13T16:16:22.000Z</time>
      </trkpt>
      <trkpt lat="43.98801" lon="7.33681">
        <ele>866.40002441406</ele>
        <time>2014-09-13T16:16:27.000Z</time>
      </trkpt>
      <trkpt lat="43.98782" lon="7.33666">
        <ele>865.40002441406</ele>
        <time>2014-09-13T16:16:33.000Z</time>
      </trkpt>
      <trkpt lat="43.98765" lon="7.33647">
        <ele>858.20001220703</ele>
        <time>2014-09-13T16:16:39.000Z</time>
      </trkpt>
      <trkpt lat="43.98749" lon="7.33633">
        <ele>851.20001220703</ele>
        <time>2014-09-13T16:16:44.000Z</time>
      </trkpt>
      <trkpt lat="43.98733" lon="7.3362">
        <ele>844.79998779297</ele>
        <time>2014-09-13T16:16:49.000Z</time>
      </trkpt>
      <trkpt lat="43.98729" lon="7.33618">
        <ele>844</ele>
        <time>2014-09-13T16:16:51.000Z</time>
      </trkpt>
      <trkpt lat="43.98729" lon="7.33617">
        <ele>843.20001220703</ele>
        <time>2014-09-13T16:16:53.000Z</time>
      </trkpt>
      <trkpt lat="43.98734" lon="7.33621">
        <ele>845.20001220703</ele>
        <time>2014-09-13T16:19:47.000Z</time>
      </trkpt>
      <trkpt lat="43.98753" lon="7.33625">
        <ele>846.59997558594</ele>
        <time>2014-09-13T16:20:21.000Z</time>
      </trkpt>
      <trkpt lat="43.98772" lon="7.33631">
        <ele>848.79998779297</ele>
        <time>2014-09-13T16:20:28.000Z</time>
      </trkpt>
      <trkpt lat="43.98778" lon="7.33632">
        <ele>848.59997558594</ele>
        <time>2014-09-13T16:20:31.000Z</time>
      </trkpt>
      <trkpt lat="43.98772" lon="7.33623">
        <ele>844.59997558594</ele>
        <time>2014-09-13T16:20:35.000Z</time>
      </trkpt>
      <trkpt lat="43.98757" lon="7.33606">
        <ele>835.79998779297</ele>
        <time>2014-09-13T16:20:41.000Z</time>
      </trkpt>
      <trkpt lat="43.98742" lon="7.33591">
        <ele>828.20001220703</ele>
        <time>2014-09-13T16:20:46.000Z</time>
      </trkpt>
      <trkpt lat="43.98726" lon="7.33577">
        <ele>820.79998779297</ele>
        <time>2014-09-13T16:20:52.000Z</time>
      </trkpt>
      <trkpt lat="43.98717" lon="7.33568">
        <ele>815.79998779297</ele>
        <time>2014-09-13T16:20:56.000Z</time>
      </trkpt>
      <trkpt lat="43.98725" lon="7.33568">
        <ele>815</ele>
        <time>2014-09-13T16:21:00.000Z</time>
      </trkpt>
      <trkpt lat="43.98744" lon="7.33577">
        <ele>820.20001220703</ele>
        <time>2014-09-13T16:21:07.000Z</time>
      </trkpt>
      <trkpt lat="43.98765" lon="7.33583">
        <ele>822.79998779297</ele>
        <time>2014-09-13T16:21:14.000Z</time>
      </trkpt>
      <trkpt lat="43.98783" lon="7.33585">
        <ele>820.79998779297</ele>
        <time>2014-09-13T16:21:20.000Z</time>
      </trkpt>
      <trkpt lat="43.98786" lon="7.33585">
        <ele>819.79998779297</ele>
        <time>2014-09-13T16:21:22.000Z</time>
      </trkpt>
      <trkpt lat="43.98766" lon="7.33574">
        <ele>816.79998779297</ele>
        <time>2014-09-13T16:21:31.000Z</time>
      </trkpt>
      <trkpt lat="43.98748" lon="7.33566">
        <ele>813</ele>
        <time>2014-09-13T16:21:38.000Z</time>
      </trkpt>
      <trkpt lat="43.98748" lon="7.33565">
        <ele>812</ele>
        <time>2014-09-13T16:21:39.000Z</time>
      </trkpt>
      <trkpt lat="43.98768" lon="7.33565">
        <ele>810.59997558594</ele>
        <time>2014-09-13T16:21:47.000Z</time>
      </trkpt>
      <trkpt lat="43.98788" lon="7.33565">
        <ele>806</ele>
        <time>2014-09-13T16:21:54.000Z</time>
      </trkpt>
      <trkpt lat="43.98804" lon="7.33567">
        <ele>801.59997558594</ele>
        <time>2014-09-13T16:22:01.000Z</time>
      </trkpt>
      <trkpt lat="43.98787" lon="7.33557">
        <ele>800.20001220703</ele>
        <time>2014-09-13T16:22:08.000Z</time>
      </trkpt>
      <trkpt lat="43.98768" lon="7.33547">
        <ele>798</ele>
        <time>2014-09-13T16:22:15.000Z</time>
      </trkpt>
      <trkpt lat="43.98751" lon="7.3354">
        <ele>794.40002441406</ele>
        <time>2014-09-13T16:22:21.000Z</time>
      </trkpt>
      <trkpt lat="43.98732" lon="7.33528">
        <ele>788.20001220703</ele>
        <time>2014-09-13T16:22:28.000Z</time>
      </trkpt>
      <trkpt lat="43.98713" lon="7.33524">
        <ele>787.40002441406</ele>
        <time>2014-09-13T16:22:36.000Z</time>
      </trkpt>
      <trkpt lat="43.98694" lon="7.33531">
        <ele>793</ele>
        <time>2014-09-13T16:22:45.000Z</time>
      </trkpt>
      <trkpt lat="43.98692" lon="7.33531">
        <ele>792.79998779297</ele>
        <time>2014-09-13T16:22:46.000Z</time>
      </trkpt>
      <trkpt lat="43.98681" lon="7.33529">
        <ele>788.59997558594</ele>
        <time>2014-09-13T16:22:52.000Z</time>
      </trkpt>
      <trkpt lat="43.98678" lon="7.33529">
        <ele>787.59997558594</ele>
        <time>2014-09-13T16:22:53.000Z</time>
      </trkpt>
      <trkpt lat="43.98664" lon="7.33525">
        <ele>781.20001220703</ele>
        <time>2014-09-13T16:23:01.000Z</time>
      </trkpt>
      <trkpt lat="43.98667" lon="7.33527">
        <ele>783.20001220703</ele>
        <time>2014-09-13T16:24:48.000Z</time>
      </trkpt>
      <trkpt lat="43.98651" lon="7.33515">
        <ele>771</ele>
        <time>2014-09-13T16:25:03.000Z</time>
      </trkpt>
      <trkpt lat="43.98636" lon="7.33508">
        <ele>762</ele>
        <time>2014-09-13T16:25:12.000Z</time>
      </trkpt>
      <trkpt lat="43.9862" lon="7.33494">
        <ele>749.59997558594</ele>
        <time>2014-09-13T16:25:22.000Z</time>
      </trkpt>
      <trkpt lat="43.98606" lon="7.33477">
        <ele>741.40002441406</ele>
        <time>2014-09-13T16:25:31.000Z</time>
      </trkpt>
      <trkpt lat="43.98592" lon="7.33457">
        <ele>733.40002441406</ele>
        <time>2014-09-13T16:25:39.000Z</time>
      </trkpt>
      <trkpt lat="43.98577" lon="7.3344">
        <ele>725.79998779297</ele>
        <time>2014-09-13T16:25:48.000Z</time>
      </trkpt>
      <trkpt lat="43.9857" lon="7.33436">
        <ele>723.40002441406</ele>
        <time>2014-09-13T16:25:53.000Z</time>
      </trkpt>
      <trkpt lat="43.98567" lon="7.33437">
        <ele>723</ele>
        <time>2014-09-13T16:25:56.000Z</time>
      </trkpt>
      <trkpt lat="43.98571" lon="7.33427">
        <ele>721.20001220703</ele>
        <time>2014-09-13T16:27:19.000Z</time>
      </trkpt>
      <trkpt lat="43.98572" lon="7.33426">
        <ele>721.20001220703</ele>
        <time>2014-09-13T16:27:20.000Z</time>
      </trkpt>
      <trkpt lat="43.98567" lon="7.33425">
        <ele>720</ele>
        <time>2014-09-13T16:28:42.000Z</time>
      </trkpt>
      <trkpt lat="43.98566" lon="7.33424">
        <ele>719.59997558594</ele>
        <time>2014-09-13T16:28:44.000Z</time>
      </trkpt>
      <trkpt lat="43.98569" lon="7.33424">
        <ele>720.20001220703</ele>
        <time>2014-09-13T16:28:49.000Z</time>
      </trkpt>
      <trkpt lat="43.98571" lon="7.33426">
        <ele>721</ele>
        <time>2014-09-13T16:28:53.000Z</time>
      </trkpt>
      <trkpt lat="43.98571" lon="7.33428">
        <ele>721.40002441406</ele>
        <time>2014-09-13T16:33:21.000Z</time>
      </trkpt>
      <trkpt lat="43.98566" lon="7.33435">
        <ele>722</ele>
        <time>2014-09-13T16:37:20.000Z</time>
      </trkpt>
      <trkpt lat="43.98583" lon="7.3344">
        <ele>727.20001220703</ele>
        <time>2014-09-13T16:37:31.000Z</time>
      </trkpt>
      <trkpt lat="43.98584" lon="7.33442">
        <ele>727.79998779297</ele>
        <time>2014-09-13T16:37:32.000Z</time>
      </trkpt>
      <trkpt lat="43.98598" lon="7.33459">
        <ele>735.20001220703</ele>
        <time>2014-09-13T16:37:47.000Z</time>
      </trkpt>
      <trkpt lat="43.98612" lon="7.33474">
        <ele>742.20001220703</ele>
        <time>2014-09-13T16:37:58.000Z</time>
      </trkpt>
      <trkpt lat="43.98617" lon="7.33478">
        <ele>744.59997558594</ele>
        <time>2014-09-13T16:38:02.000Z</time>
      </trkpt>
      <trkpt lat="43.98632" lon="7.33495">
        <ele>753.40002441406</ele>
        <time>2014-09-13T16:38:13.000Z</time>
      </trkpt>
      <trkpt lat="43.98649" lon="7.33509">
        <ele>766</ele>
        <time>2014-09-13T16:38:23.000Z</time>
      </trkpt>
      <trkpt lat="43.9865" lon="7.3351">
        <ele>767</ele>
        <time>2014-09-13T16:38:24.000Z</time>
      </trkpt>
      <trkpt lat="43.98666" lon="7.33512">
        <ele>773.40002441406</ele>
        <time>2014-09-13T16:38:32.000Z</time>
      </trkpt>
      <trkpt lat="43.98684" lon="7.33511">
        <ele>777.40002441406</ele>
        <time>2014-09-13T16:38:41.000Z</time>
      </trkpt>
      <trkpt lat="43.98702" lon="7.33502">
        <ele>773.59997558594</ele>
        <time>2014-09-13T16:38:50.000Z</time>
      </trkpt>
      <trkpt lat="43.98721" lon="7.33496">
        <ele>767</ele>
        <time>2014-09-13T16:38:59.000Z</time>
      </trkpt>
      <trkpt lat="43.98741" lon="7.33498">
        <ele>766.20001220703</ele>
        <time>2014-09-13T16:39:08.000Z</time>
      </trkpt>
      <trkpt lat="43.98761" lon="7.33499">
        <ele>764.59997558594</ele>
        <time>2014-09-13T16:39:18.000Z</time>
      </trkpt>
      <trkpt lat="43.9878" lon="7.33499">
        <ele>762.40002441406</ele>
        <time>2014-09-13T16:39:27.000Z</time>
      </trkpt>
      <trkpt lat="43.98799" lon="7.33495">
        <ele>757.40002441406</ele>
        <time>2014-09-13T16:39:36.000Z</time>
      </trkpt>
      <trkpt lat="43.98817" lon="7.3349">
        <ele>752.40002441406</ele>
        <time>2014-09-13T16:39:45.000Z</time>
      </trkpt>
      <trkpt lat="43.98836" lon="7.3349">
        <ele>750</ele>
        <time>2014-09-13T16:39:54.000Z</time>
      </trkpt>
      <trkpt lat="43.98854" lon="7.33488">
        <ele>747</ele>
        <time>2014-09-13T16:40:03.000Z</time>
      </trkpt>
      <trkpt lat="43.98871" lon="7.33484">
        <ele>744.40002441406</ele>
        <time>2014-09-13T16:40:11.000Z</time>
      </trkpt>
      <trkpt lat="43.9889" lon="7.33479">
        <ele>741.40002441406</ele>
        <time>2014-09-13T16:40:20.000Z</time>
      </trkpt>
      <trkpt lat="43.98909" lon="7.33477">
        <ele>739.40002441406</ele>
        <time>2014-09-13T16:40:29.000Z</time>
      </trkpt>
      <trkpt lat="43.98927" lon="7.33477">
        <ele>739.20001220703</ele>
        <time>2014-09-13T16:40:37.000Z</time>
      </trkpt>
      <trkpt lat="43.98946" lon="7.33485">
        <ele>742.20001220703</ele>
        <time>2014-09-13T16:40:46.000Z</time>
      </trkpt>
      <trkpt lat="43.98963" lon="7.33498">
        <ele>745.40002441406</ele>
        <time>2014-09-13T16:40:56.000Z</time>
      </trkpt>
      <trkpt lat="43.98981" lon="7.33506">
        <ele>746.40002441406</ele>
        <time>2014-09-13T16:41:05.000Z</time>
      </trkpt>
      <trkpt lat="43.98999" lon="7.33508">
        <ele>745.79998779297</ele>
        <time>2014-09-13T16:41:14.000Z</time>
      </trkpt>
      <trkpt lat="43.99018" lon="7.33509">
        <ele>744.20001220703</ele>
        <time>2014-09-13T16:41:22.000Z</time>
      </trkpt>
      <trkpt lat="43.99036" lon="7.33509">
        <ele>743.59997558594</ele>
        <time>2014-09-13T16:41:30.000Z</time>
      </trkpt>
      <trkpt lat="43.99055" lon="7.33507">
        <ele>744.40002441406</ele>
        <time>2014-09-13T16:41:38.000Z</time>
      </trkpt>
      <trkpt lat="43.99072" lon="7.33494">
        <ele>742.20001220703</ele>
        <time>2014-09-13T16:41:48.000Z</time>
      </trkpt>
      <trkpt lat="43.99085" lon="7.33475">
        <ele>737</ele>
        <time>2014-09-13T16:41:57.000Z</time>
      </trkpt>
      <trkpt lat="43.991" lon="7.33461">
        <ele>736.20001220703</ele>
        <time>2014-09-13T16:42:05.000Z</time>
      </trkpt>
      <trkpt lat="43.99117" lon="7.3346">
        <ele>738.40002441406</ele>
        <time>2014-09-13T16:42:13.000Z</time>
      </trkpt>
      <trkpt lat="43.99118" lon="7.33463">
        <ele>739.20001220703</ele>
        <time>2014-09-13T16:42:14.000Z</time>
      </trkpt>
      <trkpt lat="43.99107" lon="7.33483">
        <ele>742.59997558594</ele>
        <time>2014-09-13T16:42:23.000Z</time>
      </trkpt>
      <trkpt lat="43.99103" lon="7.33487">
        <ele>742.79998779297</ele>
        <time>2014-09-13T16:42:25.000Z</time>
      </trkpt>
      <trkpt lat="43.99089" lon="7.33504">
        <ele>746.20001220703</ele>
        <time>2014-09-13T16:42:34.000Z</time>
      </trkpt>
      <trkpt lat="43.99075" lon="7.33524">
        <ele>749.40002441406</ele>
        <time>2014-09-13T16:42:43.000Z</time>
      </trkpt>
      <trkpt lat="43.99059" lon="7.3354">
        <ele>752.59997558594</ele>
        <time>2014-09-13T16:42:52.000Z</time>
      </trkpt>
      <trkpt lat="43.99043" lon="7.33553">
        <ele>757.40002441406</ele>
        <time>2014-09-13T16:43:01.000Z</time>
      </trkpt>
      <trkpt lat="43.99025" lon="7.3356">
        <ele>760.20001220703</ele>
        <time>2014-09-13T16:43:11.000Z</time>
      </trkpt>
      <trkpt lat="43.99006" lon="7.33564">
        <ele>763.20001220703</ele>
        <time>2014-09-13T16:43:21.000Z</time>
      </trkpt>
      <trkpt lat="43.98988" lon="7.33566">
        <ele>767.20001220703</ele>
        <time>2014-09-13T16:43:30.000Z</time>
      </trkpt>
      <trkpt lat="43.98971" lon="7.33564">
        <ele>769.20001220703</ele>
        <time>2014-09-13T16:43:38.000Z</time>
      </trkpt>
      <trkpt lat="43.98982" lon="7.33567">
        <ele>768.79998779297</ele>
        <time>2014-09-13T16:43:47.000Z</time>
      </trkpt>
      <trkpt lat="43.98988" lon="7.33567">
        <ele>767.59997558594</ele>
        <time>2014-09-13T16:43:52.000Z</time>
      </trkpt>
      <trkpt lat="43.98999" lon="7.33569">
        <ele>766.79998779297</ele>
        <time>2014-09-13T16:44:01.000Z</time>
      </trkpt>
      <trkpt lat="43.99017" lon="7.33575">
        <ele>766</ele>
        <time>2014-09-13T16:44:20.000Z</time>
      </trkpt>
      <trkpt lat="43.99026" lon="7.33577">
        <ele>765.79998779297</ele>
        <time>2014-09-13T16:44:28.000Z</time>
      </trkpt>
      <trkpt lat="43.99039" lon="7.33581">
        <ele>766.59997558594</ele>
        <time>2014-09-13T16:44:41.000Z</time>
      </trkpt>
      <trkpt lat="43.99057" lon="7.33587">
        <ele>767.79998779297</ele>
        <time>2014-09-13T16:44:56.000Z</time>
      </trkpt>
      <trkpt lat="43.99075" lon="7.33587">
        <ele>767.20001220703</ele>
        <time>2014-09-13T16:45:09.000Z</time>
      </trkpt>
      <trkpt lat="43.99093" lon="7.33584">
        <ele>765.59997558594</ele>
        <time>2014-09-13T16:45:23.000Z</time>
      </trkpt>
      <trkpt lat="43.99111" lon="7.33573">
        <ele>762.59997558594</ele>
        <time>2014-09-13T16:45:38.000Z</time>
      </trkpt>
      <trkpt lat="43.99128" lon="7.33565">
        <ele>761.40002441406</ele>
        <time>2014-09-13T16:45:53.000Z</time>
      </trkpt>
      <trkpt lat="43.99139" lon="7.33565">
        <ele>761.79998779297</ele>
        <time>2014-09-13T16:46:03.000Z</time>
      </trkpt>
      <trkpt lat="43.9914" lon="7.33566">
        <ele>762</ele>
        <time>2014-09-13T16:46:05.000Z</time>
      </trkpt>
      <trkpt lat="43.99149" lon="7.33573">
        <ele>763.79998779297</ele>
        <time>2014-09-13T16:46:13.000Z</time>
      </trkpt>
      <trkpt lat="43.99162" lon="7.33592">
        <ele>768.40002441406</ele>
        <time>2014-09-13T16:46:22.000Z</time>
      </trkpt>
      <trkpt lat="43.99174" lon="7.33612">
        <ele>772.79998779297</ele>
        <time>2014-09-13T16:46:31.000Z</time>
      </trkpt>
      <trkpt lat="43.99187" lon="7.33633">
        <ele>777.40002441406</ele>
        <time>2014-09-13T16:46:41.000Z</time>
      </trkpt>
      <trkpt lat="43.9919" lon="7.33637">
        <ele>778.40002441406</ele>
        <time>2014-09-13T16:46:43.000Z</time>
      </trkpt>
      <trkpt lat="43.99203" lon="7.33655">
        <ele>779</ele>
        <time>2014-09-13T16:46:51.000Z</time>
      </trkpt>
      <trkpt lat="43.99216" lon="7.33673">
        <ele>779.40002441406</ele>
        <time>2014-09-13T16:46:59.000Z</time>
      </trkpt>
      <trkpt lat="43.99226" lon="7.33695">
        <ele>782</ele>
        <time>2014-09-13T16:47:08.000Z</time>
      </trkpt>
      <trkpt lat="43.99235" lon="7.33718">
        <ele>786.20001220703</ele>
        <time>2014-09-13T16:47:16.000Z</time>
      </trkpt>
      <trkpt lat="43.99246" lon="7.33738">
        <ele>788.79998779297</ele>
        <time>2014-09-13T16:47:24.000Z</time>
      </trkpt>
      <trkpt lat="43.99259" lon="7.33758">
        <ele>789.79998779297</ele>
        <time>2014-09-13T16:47:32.000Z</time>
      </trkpt>
      <trkpt lat="43.99272" lon="7.33779">
        <ele>790.40002441406</ele>
        <time>2014-09-13T16:47:40.000Z</time>
      </trkpt>
      <trkpt lat="43.99284" lon="7.33798">
        <ele>789.20001220703</ele>
        <time>2014-09-13T16:47:48.000Z</time>
      </trkpt>
      <trkpt lat="43.99295" lon="7.33821">
        <ele>789.59997558594</ele>
        <time>2014-09-13T16:47:56.000Z</time>
      </trkpt>
      <trkpt lat="43.99305" lon="7.33845">
        <ele>787.20001220703</ele>
        <time>2014-09-13T16:48:05.000Z</time>
      </trkpt>
      <trkpt lat="43.9931" lon="7.33871">
        <ele>786</ele>
        <time>2014-09-13T16:48:13.000Z</time>
      </trkpt>
      <trkpt lat="43.99309" lon="7.33896">
        <ele>792</ele>
        <time>2014-09-13T16:48:21.000Z</time>
      </trkpt>
      <trkpt lat="43.99307" lon="7.33924">
        <ele>798.20001220703</ele>
        <time>2014-09-13T16:48:29.000Z</time>
      </trkpt>
      <trkpt lat="43.99306" lon="7.33943">
        <ele>800.79998779297</ele>
        <time>2014-09-13T16:48:35.000Z</time>
      </trkpt>
      <trkpt lat="43.99304" lon="7.33955">
        <ele>803.59997558594</ele>
        <time>2014-09-13T16:48:39.000Z</time>
      </trkpt>
      <trkpt lat="43.99302" lon="7.33981">
        <ele>808.40002441406</ele>
        <time>2014-09-13T16:48:50.000Z</time>
      </trkpt>
      <trkpt lat="43.99302" lon="7.33984">
        <ele>808.79998779297</ele>
        <time>2014-09-13T16:48:51.000Z</time>
      </trkpt>
      <trkpt lat="43.99302" lon="7.33989">
        <ele>809.79998779297</ele>
        <time>2014-09-13T16:48:54.000Z</time>
      </trkpt>
      <trkpt lat="43.99301" lon="7.33995">
        <ele>811.20001220703</ele>
        <time>2014-09-13T16:48:58.000Z</time>
      </trkpt>
      <trkpt lat="43.993" lon="7.34012">
        <ele>814</ele>
        <time>2014-09-13T16:49:08.000Z</time>
      </trkpt>
      <trkpt lat="43.99301" lon="7.34029">
        <ele>815</ele>
        <time>2014-09-13T16:49:18.000Z</time>
      </trkpt>
      <trkpt lat="43.99311" lon="7.34051">
        <ele>809.20001220703</ele>
        <time>2014-09-13T16:49:32.000Z</time>
      </trkpt>
      <trkpt lat="43.9932" lon="7.34067">
        <ele>804.20001220703</ele>
        <time>2014-09-13T16:49:42.000Z</time>
      </trkpt>
      <trkpt lat="43.99323" lon="7.34073">
        <ele>802.59997558594</ele>
        <time>2014-09-13T16:49:46.000Z</time>
      </trkpt>
      <trkpt lat="43.99324" lon="7.34078">
        <ele>801.79998779297</ele>
        <time>2014-09-13T16:49:49.000Z</time>
      </trkpt>
      <trkpt lat="43.99328" lon="7.34096">
        <ele>801.79998779297</ele>
        <time>2014-09-13T16:49:59.000Z</time>
      </trkpt>
      <trkpt lat="43.99328" lon="7.34098">
        <ele>801.59997558594</ele>
        <time>2014-09-13T16:50:00.000Z</time>
      </trkpt>
      <trkpt lat="43.99331" lon="7.34117">
        <ele>802.40002441406</ele>
        <time>2014-09-13T16:50:10.000Z</time>
      </trkpt>
      <trkpt lat="43.99333" lon="7.34143">
        <ele>804.79998779297</ele>
        <time>2014-09-13T16:50:23.000Z</time>
      </trkpt>
      <trkpt lat="43.99333" lon="7.34149">
        <ele>806</ele>
        <time>2014-09-13T16:50:26.000Z</time>
      </trkpt>
      <trkpt lat="43.99333" lon="7.34158">
        <ele>807.40002441406</ele>
        <time>2014-09-13T16:50:31.000Z</time>
      </trkpt>
      <trkpt lat="43.99334" lon="7.34171">
        <ele>808.79998779297</ele>
        <time>2014-09-13T16:50:37.000Z</time>
      </trkpt>
      <trkpt lat="43.99333" lon="7.34187">
        <ele>812</ele>
        <time>2014-09-13T16:50:46.000Z</time>
      </trkpt>
      <trkpt lat="43.99336" lon="7.34196">
        <ele>811.59997558594</ele>
        <time>2014-09-13T16:50:51.000Z</time>
      </trkpt>
      <trkpt lat="43.9934" lon="7.34203">
        <ele>810.20001220703</ele>
        <time>2014-09-13T16:50:55.000Z</time>
      </trkpt>
      <trkpt lat="43.99346" lon="7.34217">
        <ele>807.59997558594</ele>
        <time>2014-09-13T16:51:05.000Z</time>
      </trkpt>
      <trkpt lat="43.99365" lon="7.34215">
        <ele>798.79998779297</ele>
        <time>2014-09-13T16:51:15.000Z</time>
      </trkpt>
      <trkpt lat="43.99385" lon="7.34215">
        <ele>798</ele>
        <time>2014-09-13T16:51:22.000Z</time>
      </trkpt>
      <trkpt lat="43.99403" lon="7.34218">
        <ele>797.79998779297</ele>
        <time>2014-09-13T16:51:29.000Z</time>
      </trkpt>
      <trkpt lat="43.99423" lon="7.34224">
        <ele>796.20001220703</ele>
        <time>2014-09-13T16:51:38.000Z</time>
      </trkpt>
      <trkpt lat="43.99443" lon="7.3423">
        <ele>792</ele>
        <time>2014-09-13T16:51:46.000Z</time>
      </trkpt>
      <trkpt lat="43.9946" lon="7.34237">
        <ele>793</ele>
        <time>2014-09-13T16:51:53.000Z</time>
      </trkpt>
      <trkpt lat="43.9948" lon="7.34243">
        <ele>793.79998779297</ele>
        <time>2014-09-13T16:52:00.000Z</time>
      </trkpt>
      <trkpt lat="43.99499" lon="7.34252">
        <ele>795.59997558594</ele>
        <time>2014-09-13T16:52:07.000Z</time>
      </trkpt>
      <trkpt lat="43.99517" lon="7.34263">
        <ele>798.40002441406</ele>
        <time>2014-09-13T16:52:14.000Z</time>
      </trkpt>
      <trkpt lat="43.99534" lon="7.34274">
        <ele>798.20001220703</ele>
        <time>2014-09-13T16:52:22.000Z</time>
      </trkpt>
      <trkpt lat="43.99553" lon="7.3428">
        <ele>793.40002441406</ele>
        <time>2014-09-13T16:52:29.000Z</time>
      </trkpt>
      <trkpt lat="43.99571" lon="7.34292">
        <ele>791.40002441406</ele>
        <time>2014-09-13T16:52:35.000Z</time>
      </trkpt>
      <trkpt lat="43.99573" lon="7.34296">
        <ele>792</ele>
        <time>2014-09-13T16:52:36.000Z</time>
      </trkpt>
      <trkpt lat="43.99578" lon="7.34313">
        <ele>797.20001220703</ele>
        <time>2014-09-13T16:52:40.000Z</time>
      </trkpt>
      <trkpt lat="43.99586" lon="7.34339">
        <ele>804</ele>
        <time>2014-09-13T16:52:47.000Z</time>
      </trkpt>
      <trkpt lat="43.99587" lon="7.34364">
        <ele>809.20001220703</ele>
        <time>2014-09-13T16:52:53.000Z</time>
      </trkpt>
      <trkpt lat="43.99592" lon="7.34391">
        <ele>812.79998779297</ele>
        <time>2014-09-13T16:53:00.000Z</time>
      </trkpt>
      <trkpt lat="43.99601" lon="7.34414">
        <ele>815.59997558594</ele>
        <time>2014-09-13T16:53:06.000Z</time>
      </trkpt>
      <trkpt lat="43.99614" lon="7.34434">
        <ele>815.40002441406</ele>
        <time>2014-09-13T16:53:13.000Z</time>
      </trkpt>
      <trkpt lat="43.99631" lon="7.34449">
        <ele>815.40002441406</ele>
        <time>2014-09-13T16:53:20.000Z</time>
      </trkpt>
      <trkpt lat="43.99649" lon="7.3446">
        <ele>814</ele>
        <time>2014-09-13T16:53:27.000Z</time>
      </trkpt>
      <trkpt lat="43.99667" lon="7.34475">
        <ele>814</ele>
        <time>2014-09-13T16:53:34.000Z</time>
      </trkpt>
      <trkpt lat="43.99681" lon="7.34486">
        <ele>813</ele>
        <time>2014-09-13T16:53:40.000Z</time>
      </trkpt>
      <trkpt lat="43.99702" lon="7.34491">
        <ele>811</ele>
        <time>2014-09-13T16:53:47.000Z</time>
      </trkpt>
      <trkpt lat="43.99719" lon="7.34489">
        <ele>809.59997558594</ele>
        <time>2014-09-13T16:53:56.000Z</time>
      </trkpt>
      <trkpt lat="43.99737" lon="7.3449">
        <ele>809.79998779297</ele>
        <time>2014-09-13T16:54:06.000Z</time>
      </trkpt>
      <trkpt lat="43.99756" lon="7.34495">
        <ele>811.59997558594</ele>
        <time>2014-09-13T16:54:16.000Z</time>
      </trkpt>
      <trkpt lat="43.99775" lon="7.34492">
        <ele>809.40002441406</ele>
        <time>2014-09-13T16:54:26.000Z</time>
      </trkpt>
      <trkpt lat="43.99794" lon="7.34488">
        <ele>808.20001220703</ele>
        <time>2014-09-13T16:54:36.000Z</time>
      </trkpt>
      <trkpt lat="43.99812" lon="7.34493">
        <ele>811</ele>
        <time>2014-09-13T16:54:46.000Z</time>
      </trkpt>
      <trkpt lat="43.9983" lon="7.34501">
        <ele>814.79998779297</ele>
        <time>2014-09-13T16:54:56.000Z</time>
      </trkpt>
      <trkpt lat="43.99848" lon="7.34506">
        <ele>817.20001220703</ele>
        <time>2014-09-13T16:55:05.000Z</time>
      </trkpt>
      <trkpt lat="43.99867" lon="7.34507">
        <ele>815.59997558594</ele>
        <time>2014-09-13T16:55:14.000Z</time>
      </trkpt>
      <trkpt lat="43.99885" lon="7.34511">
        <ele>814.20001220703</ele>
        <time>2014-09-13T16:55:22.000Z</time>
      </trkpt>
      <trkpt lat="43.99904" lon="7.34517">
        <ele>813.59997558594</ele>
        <time>2014-09-13T16:55:30.000Z</time>
      </trkpt>
      <trkpt lat="43.99921" lon="7.34527">
        <ele>813.79998779297</ele>
        <time>2014-09-13T16:55:38.000Z</time>
      </trkpt>
      <trkpt lat="43.99936" lon="7.34542">
        <ele>815.79998779297</ele>
        <time>2014-09-13T16:55:47.000Z</time>
      </trkpt>
      <trkpt lat="43.99939" lon="7.34548">
        <ele>816.79998779297</ele>
        <time>2014-09-13T16:55:52.000Z</time>
      </trkpt>
      <trkpt lat="43.99943" lon="7.34549">
        <ele>816.20001220703</ele>
        <time>2014-09-13T16:55:56.000Z</time>
      </trkpt>
      <trkpt lat="43.99948" lon="7.34542">
        <ele>813</ele>
        <time>2014-09-13T16:56:01.000Z</time>
      </trkpt>
      <trkpt lat="43.99948" lon="7.34539">
        <ele>812.20001220703</ele>
        <time>2014-09-13T16:56:03.000Z</time>
      </trkpt>
      <trkpt lat="43.99948" lon="7.34535">
        <ele>811</ele>
        <time>2014-09-13T16:56:06.000Z</time>
      </trkpt>
      <trkpt lat="43.99952" lon="7.34538">
        <ele>810.59997558594</ele>
        <time>2014-09-13T16:57:30.000Z</time>
      </trkpt>
      <trkpt lat="43.99954" lon="7.34542">
        <ele>810.59997558594</ele>
        <time>2014-09-13T16:57:35.000Z</time>
      </trkpt>
      <trkpt lat="43.99947" lon="7.34548">
        <ele>814.59997558594</ele>
        <time>2014-09-13T16:59:20.000Z</time>
      </trkpt>
      <trkpt lat="43.99945" lon="7.34551">
        <ele>816.20001220703</ele>
        <time>2014-09-13T16:59:30.000Z</time>
      </trkpt>
      <trkpt lat="43.99945" lon="7.34549">
        <ele>815.59997558594</ele>
        <time>2014-09-13T17:00:25.000Z</time>
      </trkpt>
      <trkpt lat="43.99946" lon="7.34533">
        <ele>811.40002441406</ele>
        <time>2014-09-13T17:00:42.000Z</time>
      </trkpt>
      <trkpt lat="43.99948" lon="7.34534">
        <ele>811</ele>
        <time>2014-09-13T17:00:48.000Z</time>
      </trkpt>
      <trkpt lat="43.99948" lon="7.34541">
        <ele>812.59997558594</ele>
        <time>2014-09-13T17:04:05.000Z</time>
      </trkpt>
      <trkpt lat="43.99936" lon="7.34552">
        <ele>818</ele>
        <time>2014-09-13T17:04:27.000Z</time>
      </trkpt>
      <trkpt lat="43.99931" lon="7.34545">
        <ele>817</ele>
        <time>2014-09-13T17:04:35.000Z</time>
      </trkpt>
      <trkpt lat="43.99924" lon="7.34536">
        <ele>815.59997558594</ele>
        <time>2014-09-13T17:04:43.000Z</time>
      </trkpt>
      <trkpt lat="43.99923" lon="7.34536">
        <ele>815.59997558594</ele>
        <time>2014-09-13T17:04:44.000Z</time>
      </trkpt>
      <trkpt lat="43.99906" lon="7.34526">
        <ele>815.40002441406</ele>
        <time>2014-09-13T17:05:02.000Z</time>
      </trkpt>
      <trkpt lat="43.99905" lon="7.34526">
        <ele>815.40002441406</ele>
        <time>2014-09-13T17:05:03.000Z</time>
      </trkpt>
      <trkpt lat="43.99892" lon="7.34518">
        <ele>815</ele>
        <time>2014-09-13T17:05:14.000Z</time>
      </trkpt>
      <trkpt lat="43.99875" lon="7.34514">
        <ele>816</ele>
        <time>2014-09-13T17:05:27.000Z</time>
      </trkpt>
      <trkpt lat="43.99872" lon="7.34514">
        <ele>816.59997558594</ele>
        <time>2014-09-13T17:05:29.000Z</time>
      </trkpt>
      <trkpt lat="43.9987" lon="7.34513">
        <ele>817</ele>
        <time>2014-09-13T17:05:31.000Z</time>
      </trkpt>
      <trkpt lat="43.99863" lon="7.34512">
        <ele>818.59997558594</ele>
        <time>2014-09-13T17:05:37.000Z</time>
      </trkpt>
      <trkpt lat="43.9986" lon="7.34512">
        <ele>819.40002441406</ele>
        <time>2014-09-13T17:05:40.000Z</time>
      </trkpt>
      <trkpt lat="43.99854" lon="7.34513">
        <ele>819.79998779297</ele>
        <time>2014-09-13T17:05:45.000Z</time>
      </trkpt>
      <trkpt lat="43.99835" lon="7.34506">
        <ele>816.79998779297</ele>
        <time>2014-09-13T17:06:00.000Z</time>
      </trkpt>
      <trkpt lat="43.99818" lon="7.34498">
        <ele>813.40002441406</ele>
        <time>2014-09-13T17:06:15.000Z</time>
      </trkpt>
      <trkpt lat="43.99801" lon="7.34491">
        <ele>809.59997558594</ele>
        <time>2014-09-13T17:06:29.000Z</time>
      </trkpt>
      <trkpt lat="43.99798" lon="7.34491">
        <ele>809.79998779297</ele>
        <time>2014-09-13T17:06:31.000Z</time>
      </trkpt>
      <trkpt lat="43.99793" lon="7.3449">
        <ele>809</ele>
        <time>2014-09-13T17:06:35.000Z</time>
      </trkpt>
      <trkpt lat="43.9978" lon="7.34489">
        <ele>808.20001220703</ele>
        <time>2014-09-13T17:06:44.000Z</time>
      </trkpt>
      <trkpt lat="43.99776" lon="7.34491">
        <ele>808.79998779297</ele>
        <time>2014-09-13T17:06:48.000Z</time>
      </trkpt>
      <trkpt lat="43.99759" lon="7.34495">
        <ele>811.40002441406</ele>
        <time>2014-09-13T17:07:03.000Z</time>
      </trkpt>
      <trkpt lat="43.99747" lon="7.34497">
        <ele>812.59997558594</ele>
        <time>2014-09-13T17:07:14.000Z</time>
      </trkpt>
      <trkpt lat="43.99733" lon="7.34493">
        <ele>811</ele>
        <time>2014-09-13T17:07:24.000Z</time>
      </trkpt>
      <trkpt lat="43.99727" lon="7.34492">
        <ele>810.79998779297</ele>
        <time>2014-09-13T17:07:29.000Z</time>
      </trkpt>
      <trkpt lat="43.99709" lon="7.34492">
        <ele>811.40002441406</ele>
        <time>2014-09-13T17:07:44.000Z</time>
      </trkpt>
      <trkpt lat="43.9969" lon="7.34489">
        <ele>811.20001220703</ele>
        <time>2014-09-13T17:08:00.000Z</time>
      </trkpt>
      <trkpt lat="43.99673" lon="7.34481">
        <ele>814</ele>
        <time>2014-09-13T17:08:13.000Z</time>
      </trkpt>
      <trkpt lat="43.99657" lon="7.34468">
        <ele>814.40002441406</ele>
        <time>2014-09-13T17:08:27.000Z</time>
      </trkpt>
      <trkpt lat="43.99656" lon="7.34467">
        <ele>814.40002441406</ele>
        <time>2014-09-13T17:08:28.000Z</time>
      </trkpt>
      <trkpt lat="43.99652" lon="7.34464">
        <ele>814.20001220703</ele>
        <time>2014-09-13T17:08:31.000Z</time>
      </trkpt>
      <trkpt lat="43.99636" lon="7.34449">
        <ele>814.20001220703</ele>
        <time>2014-09-13T17:08:48.000Z</time>
      </trkpt>
      <trkpt lat="43.99635" lon="7.34449">
        <ele>814.40002441406</ele>
        <time>2014-09-13T17:08:49.000Z</time>
      </trkpt>
      <trkpt lat="43.99624" lon="7.34444">
        <ele>815.79998779297</ele>
        <time>2014-09-13T17:08:57.000Z</time>
      </trkpt>
      <trkpt lat="43.99614" lon="7.34437">
        <ele>816.40002441406</ele>
        <time>2014-09-13T17:09:05.000Z</time>
      </trkpt>
      <trkpt lat="43.99602" lon="7.34422">
        <ele>817.40002441406</ele>
        <time>2014-09-13T17:09:17.000Z</time>
      </trkpt>
      <trkpt lat="43.99591" lon="7.344">
        <ele>816</ele>
        <time>2014-09-13T17:09:30.000Z</time>
      </trkpt>
      <trkpt lat="43.9959" lon="7.34398">
        <ele>815.79998779297</ele>
        <time>2014-09-13T17:09:32.000Z</time>
      </trkpt>
      <trkpt lat="43.99586" lon="7.3439">
        <ele>814.79998779297</ele>
        <time>2014-09-13T17:09:37.000Z</time>
      </trkpt>
      <trkpt lat="43.99586" lon="7.34384">
        <ele>814.20001220703</ele>
        <time>2014-09-13T17:09:40.000Z</time>
      </trkpt>
      <trkpt lat="43.99585" lon="7.34376">
        <ele>812.59997558594</ele>
        <time>2014-09-13T17:09:45.000Z</time>
      </trkpt>
      <trkpt lat="43.99584" lon="7.34372">
        <ele>812</ele>
        <time>2014-09-13T17:09:47.000Z</time>
      </trkpt>
      <trkpt lat="43.99584" lon="7.34368">
        <ele>811.20001220703</ele>
        <time>2014-09-13T17:09:49.000Z</time>
      </trkpt>
      <trkpt lat="43.99583" lon="7.3436">
        <ele>810.20001220703</ele>
        <time>2014-09-13T17:09:53.000Z</time>
      </trkpt>
      <trkpt lat="43.99582" lon="7.34348">
        <ele>807.59997558594</ele>
        <time>2014-09-13T17:10:00.000Z</time>
      </trkpt>
      <trkpt lat="43.99581" lon="7.34332">
        <ele>805</ele>
        <time>2014-09-13T17:10:09.000Z</time>
      </trkpt>
      <trkpt lat="43.99577" lon="7.34315">
        <ele>799</ele>
        <time>2014-09-13T17:10:20.000Z</time>
      </trkpt>
      <trkpt lat="43.99575" lon="7.34307">
        <ele>796.20001220703</ele>
        <time>2014-09-13T17:10:25.000Z</time>
      </trkpt>
      <trkpt lat="43.99571" lon="7.34295">
        <ele>792.79998779297</ele>
        <time>2014-09-13T17:10:32.000Z</time>
      </trkpt>
      <trkpt lat="43.9956" lon="7.34284">
        <ele>792</ele>
        <time>2014-09-13T17:10:41.000Z</time>
      </trkpt>
      <trkpt lat="43.99552" lon="7.34279">
        <ele>793.20001220703</ele>
        <time>2014-09-13T17:10:48.000Z</time>
      </trkpt>
      <trkpt lat="43.9955" lon="7.34278">
        <ele>793.40002441406</ele>
        <time>2014-09-13T17:10:51.000Z</time>
      </trkpt>
      <trkpt lat="43.99541" lon="7.34273">
        <ele>794.79998779297</ele>
        <time>2014-09-13T17:11:01.000Z</time>
      </trkpt>
      <trkpt lat="43.9954" lon="7.34272">
        <ele>795</ele>
        <time>2014-09-13T17:11:02.000Z</time>
      </trkpt>
      <trkpt lat="43.99531" lon="7.34271">
        <ele>797.79998779297</ele>
        <time>2014-09-13T17:11:09.000Z</time>
      </trkpt>
      <trkpt lat="43.99521" lon="7.34263">
        <ele>797.59997558594</ele>
        <time>2014-09-13T17:11:20.000Z</time>
      </trkpt>
      <trkpt lat="43.99509" lon="7.34244">
        <ele>790.20001220703</ele>
        <time>2014-09-13T17:11:29.000Z</time>
      </trkpt>
      <trkpt lat="43.99495" lon="7.34235">
        <ele>787.59997558594</ele>
        <time>2014-09-13T17:11:38.000Z</time>
      </trkpt>
      <trkpt lat="43.99487" lon="7.3423">
        <ele>786.20001220703</ele>
        <time>2014-09-13T17:11:43.000Z</time>
      </trkpt>
      <trkpt lat="43.99469" lon="7.34218">
        <ele>782.59997558594</ele>
        <time>2014-09-13T17:11:51.000Z</time>
      </trkpt>
      <trkpt lat="43.99452" lon="7.34208">
        <ele>779.59997558594</ele>
        <time>2014-09-13T17:12:00.000Z</time>
      </trkpt>
      <trkpt lat="43.9945" lon="7.34207">
        <ele>779.40002441406</ele>
        <time>2014-09-13T17:12:01.000Z</time>
      </trkpt>
      <trkpt lat="43.99432" lon="7.34195">
        <ele>778.20001220703</ele>
        <time>2014-09-13T17:12:10.000Z</time>
      </trkpt>
      <trkpt lat="43.99412" lon="7.34186">
        <ele>781.59997558594</ele>
        <time>2014-09-13T17:12:16.000Z</time>
      </trkpt>
      <trkpt lat="43.99392" lon="7.34181">
        <ele>786.59997558594</ele>
        <time>2014-09-13T17:12:22.000Z</time>
      </trkpt>
      <trkpt lat="43.9938" lon="7.34181">
        <ele>791</ele>
        <time>2014-09-13T17:12:26.000Z</time>
      </trkpt>
      <trkpt lat="43.99374" lon="7.34177">
        <ele>791.40002441406</ele>
        <time>2014-09-13T17:12:28.000Z</time>
      </trkpt>
      <trkpt lat="43.99369" lon="7.3416">
        <ele>786.40002441406</ele>
        <time>2014-09-13T17:12:32.000Z</time>
      </trkpt>
      <trkpt lat="43.99369" lon="7.34134">
        <ele>782.59997558594</ele>
        <time>2014-09-13T17:12:37.000Z</time>
      </trkpt>
      <trkpt lat="43.9937" lon="7.34108">
        <ele>778.40002441406</ele>
        <time>2014-09-13T17:12:43.000Z</time>
      </trkpt>
      <trkpt lat="43.99371" lon="7.34083">
        <ele>772.59997558594</ele>
        <time>2014-09-13T17:12:49.000Z</time>
      </trkpt>
      <trkpt lat="43.99365" lon="7.34056">
        <ele>772.20001220703</ele>
        <time>2014-09-13T17:12:56.000Z</time>
      </trkpt>
      <trkpt lat="43.99359" lon="7.34028">
        <ele>772.40002441406</ele>
        <time>2014-09-13T17:13:03.000Z</time>
      </trkpt>
      <trkpt lat="43.99354" lon="7.34">
        <ele>772.20001220703</ele>
        <time>2014-09-13T17:13:10.000Z</time>
      </trkpt>
      <trkpt lat="43.99352" lon="7.33975">
        <ele>771</ele>
        <time>2014-09-13T17:13:16.000Z</time>
      </trkpt>
      <trkpt lat="43.9935" lon="7.33967">
        <ele>771.40002441406</ele>
        <time>2014-09-13T17:13:18.000Z</time>
      </trkpt>
      <trkpt lat="43.99346" lon="7.33939">
        <ele>771.20001220703</ele>
        <time>2014-09-13T17:13:25.000Z</time>
      </trkpt>
      <trkpt lat="43.99349" lon="7.33913">
        <ele>766.79998779297</ele>
        <time>2014-09-13T17:13:31.000Z</time>
      </trkpt>
      <trkpt lat="43.99349" lon="7.33909">
        <ele>766</ele>
        <time>2014-09-13T17:13:32.000Z</time>
      </trkpt>
      <trkpt lat="43.99352" lon="7.33882">
        <ele>762.40002441406</ele>
        <time>2014-09-13T17:13:38.000Z</time>
      </trkpt>
      <trkpt lat="43.99351" lon="7.33869">
        <ele>762.40002441406</ele>
        <time>2014-09-13T17:13:41.000Z</time>
      </trkpt>
      <trkpt lat="43.99353" lon="7.33842">
        <ele>760.59997558594</ele>
        <time>2014-09-13T17:13:47.000Z</time>
      </trkpt>
      <trkpt lat="43.99348" lon="7.33814">
        <ele>759</ele>
        <time>2014-09-13T17:13:53.000Z</time>
      </trkpt>
      <trkpt lat="43.99344" lon="7.33788">
        <ele>756.20001220703</ele>
        <time>2014-09-13T17:13:59.000Z</time>
      </trkpt>
      <trkpt lat="43.99336" lon="7.33765">
        <ele>756.20001220703</ele>
        <time>2014-09-13T17:14:04.000Z</time>
      </trkpt>
      <trkpt lat="43.99325" lon="7.3374">
        <ele>756</ele>
        <time>2014-09-13T17:14:09.000Z</time>
      </trkpt>
      <trkpt lat="43.99317" lon="7.33713">
        <ele>753.20001220703</ele>
        <time>2014-09-13T17:14:15.000Z</time>
      </trkpt>
      <trkpt lat="43.99309" lon="7.33688">
        <ele>750.20001220703</ele>
        <time>2014-09-13T17:14:21.000Z</time>
      </trkpt>
      <trkpt lat="43.99301" lon="7.33661">
        <ele>747.20001220703</ele>
        <time>2014-09-13T17:14:28.000Z</time>
      </trkpt>
      <trkpt lat="43.99295" lon="7.33636">
        <ele>746.20001220703</ele>
        <time>2014-09-13T17:14:34.000Z</time>
      </trkpt>
      <trkpt lat="43.99287" lon="7.33612">
        <ele>745.59997558594</ele>
        <time>2014-09-13T17:14:41.000Z</time>
      </trkpt>
      <trkpt lat="43.99276" lon="7.33591">
        <ele>747.20001220703</ele>
        <time>2014-09-13T17:14:48.000Z</time>
      </trkpt>
      <trkpt lat="43.99269" lon="7.33567">
        <ele>745</ele>
        <time>2014-09-13T17:14:55.000Z</time>
      </trkpt>
      <trkpt lat="43.99261" lon="7.33544">
        <ele>743.40002441406</ele>
        <time>2014-09-13T17:15:02.000Z</time>
      </trkpt>
      <trkpt lat="43.99256" lon="7.3352">
        <ele>740.59997558594</ele>
        <time>2014-09-13T17:15:09.000Z</time>
      </trkpt>
      <trkpt lat="43.99248" lon="7.33493">
        <ele>737.59997558594</ele>
        <time>2014-09-13T17:15:17.000Z</time>
      </trkpt>
      <trkpt lat="43.99242" lon="7.33469">
        <ele>731.40002441406</ele>
        <time>2014-09-13T17:15:24.000Z</time>
      </trkpt>
      <trkpt lat="43.99234" lon="7.33445">
        <ele>727.40002441406</ele>
        <time>2014-09-13T17:15:31.000Z</time>
      </trkpt>
      <trkpt lat="43.99219" lon="7.33431">
        <ele>727</ele>
        <time>2014-09-13T17:15:38.000Z</time>
      </trkpt>
      <trkpt lat="43.99202" lon="7.33421">
        <ele>728.40002441406</ele>
        <time>2014-09-13T17:15:46.000Z</time>
      </trkpt>
      <trkpt lat="43.99184" lon="7.33415">
        <ele>729.20001220703</ele>
        <time>2014-09-13T17:15:53.000Z</time>
      </trkpt>
      <trkpt lat="43.99166" lon="7.33407">
        <ele>727.20001220703</ele>
        <time>2014-09-13T17:15:59.000Z</time>
      </trkpt>
      <trkpt lat="43.99158" lon="7.33401">
        <ele>726.20001220703</ele>
        <time>2014-09-13T17:16:06.000Z</time>
      </trkpt>
      <trkpt lat="43.9916" lon="7.33388">
        <ele>724.20001220703</ele>
        <time>2014-09-13T17:16:34.000Z</time>
      </trkpt>
      <trkpt lat="43.99168" lon="7.33387">
        <ele>723.40002441406</ele>
        <time>2014-09-13T17:17:42.000Z</time>
      </trkpt>
    </trkseg>
  </trk>
</gpx>